sensor_id;sensor_type;location;lat;lon;timestamp;P1;durP1;ratioP1;P2;durP2;ratioP2
65234;SDS011;51820;48.374;10.930;2023-04-09T00:00:34;19.02;;;11.18;;
65234;SDS011;51820;48.374;10.930;2023-04-09T00:03:02;17.58;;;10.02;;
65234;SDS011;51820;48.374;10.930;2023-04-09T00:05:37;19.67;;;10.55;;
65234;SDS011;51820;48.374;10.930;2023-04-09T00:08:06;19.63;;;10.90;;
65234;SDS011;51820;48.374;10.930;2023-04-09T00:10:34;18.10;;;9.82;;
65234;SDS011;51820;48.374;10.930;2023-04-09T00:13:07;19.23;;;10.50;;
65234;SDS011;51820;48.374;10.930;2023-04-09T00:15:35;18.90;;;9.98;;
65234;SDS011;51820;48.374;10.930;2023-04-09T00:18:04;17.02;;;10.00;;
65234;SDS011;51820;48.374;10.930;2023-04-09T00:20:32;18.23;;;10.27;;
65234;SDS011;51820;48.374;10.930;2023-04-09T00:23:01;16.98;;;10.07;;
65234;SDS011;51820;48.374;10.930;2023-04-09T00:25:29;17.27;;;9.95;;
65234;SDS011;51820;48.374;10.930;2023-04-09T00:27:58;18.88;;;10.02;;
65234;SDS011;51820;48.374;10.930;2023-04-09T00:30:28;17.50;;;10.13;;
65234;SDS011;51820;48.374;10.930;2023-04-09T00:32:56;17.20;;;10.33;;
65234;SDS011;51820;48.374;10.930;2023-04-09T00:35:25;21.00;;;10.68;;
65234;SDS011;51820;48.374;10.930;2023-04-09T00:37:53;17.00;;;9.93;;
65234;SDS011;51820;48.374;10.930;2023-04-09T00:40:24;18.60;;;9.50;;
65234;SDS011;51820;48.374;10.930;2023-04-09T00:42:55;18.67;;;10.43;;
65234;SDS011;51820;48.374;10.930;2023-04-09T00:45:24;17.70;;;9.90;;
65234;SDS011;51820;48.374;10.930;2023-04-09T00:47:54;18.73;;;9.98;;
65234;SDS011;51820;48.374;10.930;2023-04-09T00:50:22;18.48;;;9.98;;
65234;SDS011;51820;48.374;10.930;2023-04-09T00:52:51;18.70;;;9.90;;
65234;SDS011;51820;48.374;10.930;2023-04-09T00:55:22;19.10;;;10.07;;
65234;SDS011;51820;48.374;10.930;2023-04-09T00:57:50;19.90;;;10.50;;
65234;SDS011;51820;48.374;10.930;2023-04-09T01:00:19;20.35;;;10.10;;
65234;SDS011;51820;48.374;10.930;2023-04-09T01:02:48;18.40;;;10.07;;
65234;SDS011;51820;48.374;10.930;2023-04-09T01:05:20;19.25;;;10.18;;
65234;SDS011;51820;48.374;10.930;2023-04-09T01:07:53;20.77;;;9.80;;
65234;SDS011;51820;48.374;10.930;2023-04-09T01:10:41;17.77;;;9.77;;
65234;SDS011;51820;48.374;10.930;2023-04-09T01:13:15;20.13;;;10.35;;
65234;SDS011;51820;48.374;10.930;2023-04-09T01:15:47;17.77;;;10.32;;
65234;SDS011;51820;48.374;10.930;2023-04-09T01:18:21;17.55;;;9.98;;
65234;SDS011;51820;48.374;10.930;2023-04-09T01:20:57;17.92;;;10.43;;
65234;SDS011;51820;48.374;10.930;2023-04-09T01:23:32;17.03;;;9.30;;
65234;SDS011;51820;48.374;10.930;2023-04-09T01:26:09;16.73;;;9.82;;
65234;SDS011;51820;48.374;10.930;2023-04-09T01:28:55;20.65;;;10.20;;
65234;SDS011;51820;48.374;10.930;2023-04-09T01:31:28;19.90;;;10.68;;
65234;SDS011;51820;48.374;10.930;2023-04-09T01:33:59;17.98;;;10.23;;
65234;SDS011;51820;48.374;10.930;2023-04-09T01:36:28;20.30;;;10.47;;
65234;SDS011;51820;48.374;10.930;2023-04-09T01:38:59;20.00;;;10.52;;
65234;SDS011;51820;48.374;10.930;2023-04-09T01:41:31;20.05;;;10.48;;
65234;SDS011;51820;48.374;10.930;2023-04-09T01:44:10;19.58;;;10.77;;
65234;SDS011;51820;48.374;10.930;2023-04-09T01:46:40;21.60;;;10.63;;
65234;SDS011;51820;48.374;10.930;2023-04-09T01:49:09;20.10;;;10.87;;
65234;SDS011;51820;48.374;10.930;2023-04-09T01:51:41;19.77;;;10.57;;
65234;SDS011;51820;48.374;10.930;2023-04-09T01:54:10;20.85;;;10.43;;
65234;SDS011;51820;48.374;10.930;2023-04-09T01:56:42;19.73;;;11.27;;
65234;SDS011;51820;48.374;10.930;2023-04-09T01:59:13;19.67;;;10.68;;
65234;SDS011;51820;48.374;10.930;2023-04-09T02:01:44;19.47;;;11.23;;
65234;SDS011;51820;48.374;10.930;2023-04-09T02:04:16;20.98;;;11.48;;
65234;SDS011;51820;48.374;10.930;2023-04-09T02:06:51;28.33;;;13.00;;
65234;SDS011;51820;48.374;10.930;2023-04-09T02:09:26;24.08;;;13.00;;
65234;SDS011;51820;48.374;10.930;2023-04-09T02:12:05;25.60;;;13.75;;
65234;SDS011;51820;48.374;10.930;2023-04-09T02:14:43;25.17;;;13.27;;
65234;SDS011;51820;48.374;10.930;2023-04-09T02:17:13;25.20;;;12.88;;
65234;SDS011;51820;48.374;10.930;2023-04-09T02:19:42;23.15;;;12.43;;
65234;SDS011;51820;48.374;10.930;2023-04-09T02:22:13;25.02;;;12.82;;
65234;SDS011;51820;48.374;10.930;2023-04-09T02:24:43;25.08;;;12.43;;
65234;SDS011;51820;48.374;10.930;2023-04-09T02:27:13;23.67;;;11.83;;
65234;SDS011;51820;48.374;10.930;2023-04-09T02:29:44;20.95;;;12.00;;
65234;SDS011;51820;48.374;10.930;2023-04-09T02:32:15;22.58;;;12.57;;
65234;SDS011;51820;48.374;10.930;2023-04-09T02:34:43;23.27;;;12.70;;
65234;SDS011;51820;48.374;10.930;2023-04-09T02:37:11;23.13;;;12.98;;
65234;SDS011;51820;48.374;10.930;2023-04-09T02:39:41;24.13;;;12.33;;
65234;SDS011;51820;48.374;10.930;2023-04-09T02:42:09;23.38;;;12.45;;
65234;SDS011;51820;48.374;10.930;2023-04-09T02:44:37;20.88;;;11.60;;
65234;SDS011;51820;48.374;10.930;2023-04-09T02:47:07;22.13;;;12.40;;
65234;SDS011;51820;48.374;10.930;2023-04-09T02:49:37;23.85;;;12.15;;
65234;SDS011;51820;48.374;10.930;2023-04-09T02:52:05;22.40;;;11.70;;
65234;SDS011;51820;48.374;10.930;2023-04-09T02:54:34;21.83;;;12.18;;
65234;SDS011;51820;48.374;10.930;2023-04-09T02:57:05;21.90;;;11.55;;
65234;SDS011;51820;48.374;10.930;2023-04-09T02:59:35;22.27;;;12.18;;
65234;SDS011;51820;48.374;10.930;2023-04-09T03:02:05;24.80;;;12.50;;
65234;SDS011;51820;48.374;10.930;2023-04-09T03:04:35;22.23;;;12.13;;
65234;SDS011;51820;48.374;10.930;2023-04-09T03:07:03;26.63;;;11.93;;
65234;SDS011;51820;48.374;10.930;2023-04-09T03:09:31;23.52;;;13.35;;
65234;SDS011;51820;48.374;10.930;2023-04-09T03:12:00;24.52;;;13.10;;
65234;SDS011;51820;48.374;10.930;2023-04-09T03:14:32;24.13;;;12.40;;
65234;SDS011;51820;48.374;10.930;2023-04-09T03:17:01;23.77;;;12.30;;
65234;SDS011;51820;48.374;10.930;2023-04-09T03:19:29;23.98;;;13.05;;
65234;SDS011;51820;48.374;10.930;2023-04-09T03:22:00;19.85;;;12.10;;
65234;SDS011;51820;48.374;10.930;2023-04-09T03:24:30;21.88;;;11.80;;
65234;SDS011;51820;48.374;10.930;2023-04-09T03:27:02;26.75;;;12.65;;
65234;SDS011;51820;48.374;10.930;2023-04-09T03:29:31;20.53;;;11.63;;
65234;SDS011;51820;48.374;10.930;2023-04-09T03:32:00;21.90;;;12.77;;
65234;SDS011;51820;48.374;10.930;2023-04-09T03:34:31;25.38;;;14.45;;
65234;SDS011;51820;48.374;10.930;2023-04-09T03:37:01;26.17;;;13.52;;
65234;SDS011;51820;48.374;10.930;2023-04-09T03:39:32;25.73;;;12.85;;
65234;SDS011;51820;48.374;10.930;2023-04-09T03:42:03;22.27;;;12.83;;
65234;SDS011;51820;48.374;10.930;2023-04-09T03:44:41;24.52;;;12.70;;
65234;SDS011;51820;48.374;10.930;2023-04-09T03:47:13;26.05;;;13.43;;
65234;SDS011;51820;48.374;10.930;2023-04-09T03:49:42;25.10;;;12.77;;
65234;SDS011;51820;48.374;10.930;2023-04-09T03:52:25;21.88;;;12.07;;
65234;SDS011;51820;48.374;10.930;2023-04-09T03:55:05;20.57;;;11.20;;
65234;SDS011;51820;48.374;10.930;2023-04-09T03:57:37;24.35;;;11.93;;
65234;SDS011;51820;48.374;10.930;2023-04-09T04:00:10;21.20;;;11.98;;
65234;SDS011;51820;48.374;10.930;2023-04-09T04:03:11;20.77;;;12.00;;
65234;SDS011;51820;48.374;10.930;2023-04-09T04:06:02;23.35;;;11.48;;
65234;SDS011;51820;48.374;10.930;2023-04-09T04:08:45;24.23;;;11.93;;
65234;SDS011;51820;48.374;10.930;2023-04-09T04:11:14;24.50;;;12.70;;
65234;SDS011;51820;48.374;10.930;2023-04-09T04:13:43;21.67;;;11.70;;
65234;SDS011;51820;48.374;10.930;2023-04-09T04:16:13;20.67;;;11.43;;
65234;SDS011;51820;48.374;10.930;2023-04-09T04:18:41;23.23;;;12.65;;
65234;SDS011;51820;48.374;10.930;2023-04-09T04:21:13;26.13;;;13.40;;
65234;SDS011;51820;48.374;10.930;2023-04-09T04:23:48;23.95;;;13.43;;
65234;SDS011;51820;48.374;10.930;2023-04-09T04:26:21;25.92;;;13.85;;
65234;SDS011;51820;48.374;10.930;2023-04-09T04:28:50;23.98;;;12.88;;
65234;SDS011;51820;48.374;10.930;2023-04-09T04:31:45;23.70;;;12.95;;
65234;SDS011;51820;48.374;10.930;2023-04-09T04:34:17;23.47;;;12.07;;
65234;SDS011;51820;48.374;10.930;2023-04-09T04:36:53;26.42;;;13.57;;
65234;SDS011;51820;48.374;10.930;2023-04-09T04:39:26;23.75;;;13.18;;
65234;SDS011;51820;48.374;10.930;2023-04-09T04:41:59;24.25;;;12.48;;
65234;SDS011;51820;48.374;10.930;2023-04-09T04:44:28;26.80;;;13.25;;
65234;SDS011;51820;48.374;10.930;2023-04-09T04:47:07;24.57;;;13.23;;
65234;SDS011;51820;48.374;10.930;2023-04-09T04:49:35;22.65;;;12.40;;
65234;SDS011;51820;48.374;10.930;2023-04-09T04:52:08;24.92;;;12.20;;
65234;SDS011;51820;48.374;10.930;2023-04-09T04:54:42;24.77;;;12.55;;
65234;SDS011;51820;48.374;10.930;2023-04-09T04:57:17;25.30;;;12.98;;
65234;SDS011;51820;48.374;10.930;2023-04-09T04:59:47;21.77;;;12.70;;
65234;SDS011;51820;48.374;10.930;2023-04-09T05:02:17;22.95;;;13.35;;
65234;SDS011;51820;48.374;10.930;2023-04-09T05:05:10;24.23;;;12.88;;
65234;SDS011;51820;48.374;10.930;2023-04-09T05:07:46;25.42;;;13.05;;
65234;SDS011;51820;48.374;10.930;2023-04-09T05:10:20;26.52;;;13.07;;
65234;SDS011;51820;48.374;10.930;2023-04-09T05:12:48;24.33;;;11.87;;
65234;SDS011;51820;48.374;10.930;2023-04-09T05:15:25;24.60;;;12.60;;
65234;SDS011;51820;48.374;10.930;2023-04-09T05:17:54;23.45;;;12.32;;
65234;SDS011;51820;48.374;10.930;2023-04-09T05:20:23;26.77;;;13.05;;
65234;SDS011;51820;48.374;10.930;2023-04-09T05:23:03;24.70;;;13.05;;
65234;SDS011;51820;48.374;10.930;2023-04-09T05:25:39;25.63;;;12.67;;
65234;SDS011;51820;48.374;10.930;2023-04-09T05:28:14;24.67;;;13.85;;
65234;SDS011;51820;48.374;10.930;2023-04-09T05:30:45;25.45;;;12.52;;
65234;SDS011;51820;48.374;10.930;2023-04-09T05:33:15;22.80;;;12.55;;
65234;SDS011;51820;48.374;10.930;2023-04-09T05:35:44;29.20;;;14.30;;
65234;SDS011;51820;48.374;10.930;2023-04-09T05:38:13;27.40;;;13.87;;
65234;SDS011;51820;48.374;10.930;2023-04-09T05:40:45;27.15;;;13.88;;
65234;SDS011;51820;48.374;10.930;2023-04-09T05:43:14;27.33;;;14.38;;
65234;SDS011;51820;48.374;10.930;2023-04-09T05:45:43;27.50;;;14.43;;
65234;SDS011;51820;48.374;10.930;2023-04-09T05:48:11;28.15;;;14.70;;
65234;SDS011;51820;48.374;10.930;2023-04-09T05:50:40;32.97;;;15.23;;
65234;SDS011;51820;48.374;10.930;2023-04-09T05:53:22;34.42;;;14.85;;
65234;SDS011;51820;48.374;10.930;2023-04-09T05:55:52;32.00;;;15.20;;
65234;SDS011;51820;48.374;10.930;2023-04-09T05:58:23;28.42;;;14.20;;
65234;SDS011;51820;48.374;10.930;2023-04-09T06:00:55;31.35;;;15.43;;
65234;SDS011;51820;48.374;10.930;2023-04-09T06:03:24;31.80;;;15.30;;
65234;SDS011;51820;48.374;10.930;2023-04-09T06:05:55;34.03;;;16.35;;
65234;SDS011;51820;48.374;10.930;2023-04-09T06:08:23;33.88;;;16.02;;
65234;SDS011;51820;48.374;10.930;2023-04-09T06:10:53;33.28;;;16.50;;
65234;SDS011;51820;48.374;10.930;2023-04-09T06:13:21;36.95;;;16.25;;
65234;SDS011;51820;48.374;10.930;2023-04-09T06:15:50;30.10;;;15.57;;
65234;SDS011;51820;48.374;10.930;2023-04-09T06:18:18;33.45;;;15.85;;
65234;SDS011;51820;48.374;10.930;2023-04-09T06:20:49;29.40;;;15.10;;
65234;SDS011;51820;48.374;10.930;2023-04-09T06:23:27;31.92;;;16.13;;
65234;SDS011;51820;48.374;10.930;2023-04-09T06:25:57;31.52;;;16.27;;
65234;SDS011;51820;48.374;10.930;2023-04-09T06:28:26;31.37;;;16.23;;
65234;SDS011;51820;48.374;10.930;2023-04-09T06:30:55;31.05;;;16.15;;
65234;SDS011;51820;48.374;10.930;2023-04-09T06:33:26;31.55;;;15.82;;
65234;SDS011;51820;48.374;10.930;2023-04-09T06:35:54;32.33;;;16.10;;
65234;SDS011;51820;48.374;10.930;2023-04-09T06:38:23;33.38;;;16.23;;
65234;SDS011;51820;48.374;10.930;2023-04-09T06:40:54;31.67;;;15.63;;
65234;SDS011;51820;48.374;10.930;2023-04-09T06:43:24;33.13;;;16.67;;
65234;SDS011;51820;48.374;10.930;2023-04-09T06:45:52;31.33;;;15.18;;
65234;SDS011;51820;48.374;10.930;2023-04-09T06:48:21;29.83;;;15.77;;
65234;SDS011;51820;48.374;10.930;2023-04-09T06:50:57;31.63;;;16.25;;
65234;SDS011;51820;48.374;10.930;2023-04-09T06:53:27;32.40;;;16.13;;
65234;SDS011;51820;48.374;10.930;2023-04-09T06:55:56;32.35;;;16.23;;
65234;SDS011;51820;48.374;10.930;2023-04-09T06:58:30;30.10;;;15.23;;
65234;SDS011;51820;48.374;10.930;2023-04-09T07:01:00;30.98;;;15.27;;
65234;SDS011;51820;48.374;10.930;2023-04-09T07:03:30;30.95;;;16.45;;
65234;SDS011;51820;48.374;10.930;2023-04-09T07:06:05;34.00;;;15.77;;
65234;SDS011;51820;48.374;10.930;2023-04-09T07:08:34;29.75;;;14.55;;
65234;SDS011;51820;48.374;10.930;2023-04-09T07:11:02;29.20;;;16.10;;
65234;SDS011;51820;48.374;10.930;2023-04-09T07:13:32;29.25;;;14.52;;
65234;SDS011;51820;48.374;10.930;2023-04-09T07:16:02;28.23;;;15.35;;
65234;SDS011;51820;48.374;10.930;2023-04-09T07:18:30;29.43;;;14.67;;
65234;SDS011;51820;48.374;10.930;2023-04-09T07:20:59;30.95;;;14.93;;
65234;SDS011;51820;48.374;10.930;2023-04-09T07:23:28;29.50;;;14.95;;
65234;SDS011;51820;48.374;10.930;2023-04-09T07:26:00;30.58;;;14.85;;
65234;SDS011;51820;48.374;10.930;2023-04-09T07:28:29;26.95;;;14.20;;
65234;SDS011;51820;48.374;10.930;2023-04-09T07:30:59;28.80;;;14.93;;
65234;SDS011;51820;48.374;10.930;2023-04-09T07:33:30;27.52;;;14.25;;
65234;SDS011;51820;48.374;10.930;2023-04-09T07:35:59;26.45;;;13.85;;
65234;SDS011;51820;48.374;10.930;2023-04-09T07:38:27;28.30;;;14.98;;
65234;SDS011;51820;48.374;10.930;2023-04-09T07:40:57;25.60;;;13.38;;
65234;SDS011;51820;48.374;10.930;2023-04-09T07:43:26;28.13;;;13.17;;
65234;SDS011;51820;48.374;10.930;2023-04-09T07:45:55;30.05;;;14.07;;
65234;SDS011;51820;48.374;10.930;2023-04-09T07:48:25;26.38;;;14.27;;
65234;SDS011;51820;48.374;10.930;2023-04-09T07:50:53;27.40;;;14.25;;
65234;SDS011;51820;48.374;10.930;2023-04-09T07:53:25;26.40;;;13.70;;
65234;SDS011;51820;48.374;10.930;2023-04-09T07:55:53;25.83;;;13.87;;
65234;SDS011;51820;48.374;10.930;2023-04-09T07:58:22;24.60;;;13.77;;
65234;SDS011;51820;48.374;10.930;2023-04-09T08:00:51;24.85;;;13.70;;
65234;SDS011;51820;48.374;10.930;2023-04-09T08:03:19;24.17;;;13.07;;
65234;SDS011;51820;48.374;10.930;2023-04-09T08:05:49;24.98;;;12.68;;
65234;SDS011;51820;48.374;10.930;2023-04-09T08:08:17;23.93;;;12.73;;
65234;SDS011;51820;48.374;10.930;2023-04-09T08:10:47;21.48;;;12.02;;
65234;SDS011;51820;48.374;10.930;2023-04-09T08:13:19;48.30;;;23.15;;
65234;SDS011;51820;48.374;10.930;2023-04-09T08:15:47;23.42;;;12.48;;
65234;SDS011;51820;48.374;10.930;2023-04-09T08:18:16;24.58;;;13.13;;
65234;SDS011;51820;48.374;10.930;2023-04-09T08:20:44;21.63;;;11.83;;
65234;SDS011;51820;48.374;10.930;2023-04-09T08:23:17;18.88;;;10.00;;
65234;SDS011;51820;48.374;10.930;2023-04-09T08:25:47;16.05;;;8.65;;
65234;SDS011;51820;48.374;10.930;2023-04-09T08:28:16;17.70;;;8.98;;
65234;SDS011;51820;48.374;10.930;2023-04-09T08:30:44;20.50;;;9.50;;
65234;SDS011;51820;48.374;10.930;2023-04-09T08:33:13;18.63;;;9.40;;
65234;SDS011;51820;48.374;10.930;2023-04-09T08:35:42;16.55;;;8.55;;
65234;SDS011;51820;48.374;10.930;2023-04-09T08:38:10;18.58;;;8.43;;
65234;SDS011;51820;48.374;10.930;2023-04-09T08:40:52;16.23;;;8.15;;
65234;SDS011;51820;48.374;10.930;2023-04-09T08:43:24;15.57;;;8.73;;
65234;SDS011;51820;48.374;10.930;2023-04-09T08:46:12;15.30;;;8.67;;
65234;SDS011;51820;48.374;10.930;2023-04-09T08:48:44;14.30;;;8.40;;
65234;SDS011;51820;48.374;10.930;2023-04-09T08:51:13;19.52;;;8.60;;
65234;SDS011;51820;48.374;10.930;2023-04-09T08:53:43;16.10;;;8.50;;
65234;SDS011;51820;48.374;10.930;2023-04-09T08:56:14;14.68;;;8.10;;
65234;SDS011;51820;48.374;10.930;2023-04-09T08:58:45;17.07;;;8.23;;
65234;SDS011;51820;48.374;10.930;2023-04-09T09:01:17;15.30;;;8.02;;
65234;SDS011;51820;48.374;10.930;2023-04-09T09:03:53;17.83;;;9.40;;
65234;SDS011;51820;48.374;10.930;2023-04-09T09:06:23;15.23;;;7.70;;
65234;SDS011;51820;48.374;10.930;2023-04-09T09:09:01;13.07;;;7.90;;
65234;SDS011;51820;48.374;10.930;2023-04-09T09:11:33;13.37;;;8.00;;
65234;SDS011;51820;48.374;10.930;2023-04-09T09:14:03;12.90;;;7.40;;
65234;SDS011;51820;48.374;10.930;2023-04-09T09:16:32;14.77;;;7.60;;
65234;SDS011;51820;48.374;10.930;2023-04-09T09:19:01;12.82;;;7.40;;
65234;SDS011;51820;48.374;10.930;2023-04-09T09:21:29;11.50;;;6.43;;
65234;SDS011;51820;48.374;10.930;2023-04-09T09:23:58;12.57;;;7.10;;
65234;SDS011;51820;48.374;10.930;2023-04-09T09:26:27;11.85;;;6.45;;
65234;SDS011;51820;48.374;10.930;2023-04-09T09:28:58;13.05;;;7.13;;
65234;SDS011;51820;48.374;10.930;2023-04-09T09:31:31;13.55;;;6.97;;
65234;SDS011;51820;48.374;10.930;2023-04-09T09:34:12;13.30;;;7.32;;
65234;SDS011;51820;48.374;10.930;2023-04-09T09:36:41;12.77;;;6.73;;
65234;SDS011;51820;48.374;10.930;2023-04-09T09:39:10;15.50;;;7.32;;
65234;SDS011;51820;48.374;10.930;2023-04-09T09:41:38;13.55;;;7.60;;
65234;SDS011;51820;48.374;10.930;2023-04-09T09:44:09;12.80;;;7.30;;
65234;SDS011;51820;48.374;10.930;2023-04-09T09:46:39;13.93;;;7.63;;
65234;SDS011;51820;48.374;10.930;2023-04-09T09:49:08;13.63;;;7.63;;
65234;SDS011;51820;48.374;10.930;2023-04-09T09:51:38;13.13;;;7.53;;
65234;SDS011;51820;48.374;10.930;2023-04-09T09:54:07;13.82;;;7.75;;
65234;SDS011;51820;48.374;10.930;2023-04-09T09:56:37;13.95;;;7.75;;
65234;SDS011;51820;48.374;10.930;2023-04-09T09:59:12;13.20;;;7.50;;
65234;SDS011;51820;48.374;10.930;2023-04-09T10:01:46;14.07;;;7.63;;
65234;SDS011;51820;48.374;10.930;2023-04-09T10:04:16;15.15;;;7.93;;
65234;SDS011;51820;48.374;10.930;2023-04-09T10:06:46;13.68;;;8.23;;
65234;SDS011;51820;48.374;10.930;2023-04-09T10:09:19;13.43;;;7.65;;
65234;SDS011;51820;48.374;10.930;2023-04-09T10:11:52;15.88;;;8.68;;
65234;SDS011;51820;48.374;10.930;2023-04-09T10:14:26;13.87;;;7.97;;
65234;SDS011;51820;48.374;10.930;2023-04-09T10:16:54;13.48;;;7.97;;
65234;SDS011;51820;48.374;10.930;2023-04-09T10:19:23;12.73;;;7.63;;
65234;SDS011;51820;48.374;10.930;2023-04-09T10:21:52;13.45;;;7.22;;
65234;SDS011;51820;48.374;10.930;2023-04-09T10:24:25;13.35;;;7.18;;
65234;SDS011;51820;48.374;10.930;2023-04-09T10:26:54;13.67;;;7.33;;
65234;SDS011;51820;48.374;10.930;2023-04-09T10:29:27;12.77;;;7.60;;
65234;SDS011;51820;48.374;10.930;2023-04-09T10:32:02;12.07;;;7.38;;
65234;SDS011;51820;48.374;10.930;2023-04-09T10:34:33;11.75;;;6.55;;
65234;SDS011;51820;48.374;10.930;2023-04-09T10:37:02;11.63;;;7.28;;
65234;SDS011;51820;48.374;10.930;2023-04-09T10:39:32;14.80;;;7.83;;
65234;SDS011;51820;48.374;10.930;2023-04-09T10:42:00;12.43;;;6.60;;
65234;SDS011;51820;48.374;10.930;2023-04-09T10:44:39;13.10;;;7.28;;
65234;SDS011;51820;48.374;10.930;2023-04-09T10:47:08;10.85;;;6.38;;
65234;SDS011;51820;48.374;10.930;2023-04-09T10:49:40;11.20;;;6.93;;
65234;SDS011;51820;48.374;10.930;2023-04-09T10:52:10;11.93;;;6.67;;
65234;SDS011;51820;48.374;10.930;2023-04-09T10:54:41;12.35;;;7.50;;
65234;SDS011;51820;48.374;10.930;2023-04-09T10:57:12;12.48;;;6.88;;
65234;SDS011;51820;48.374;10.930;2023-04-09T10:59:47;12.93;;;7.15;;
65234;SDS011;51820;48.374;10.930;2023-04-09T11:02:27;13.50;;;7.40;;
65234;SDS011;51820;48.374;10.930;2023-04-09T11:08:02;13.25;;;7.25;;
65234;SDS011;51820;48.374;10.930;2023-04-09T11:10:32;12.60;;;7.22;;
65234;SDS011;51820;48.374;10.930;2023-04-09T11:13:04;13.18;;;7.32;;
65234;SDS011;51820;48.374;10.930;2023-04-09T11:15:34;16.30;;;7.88;;
65234;SDS011;51820;48.374;10.930;2023-04-09T11:18:05;13.43;;;7.50;;
65234;SDS011;51820;48.374;10.930;2023-04-09T11:20:35;13.80;;;7.70;;
65234;SDS011;51820;48.374;10.930;2023-04-09T11:23:03;13.95;;;7.70;;
65234;SDS011;51820;48.374;10.930;2023-04-09T11:25:33;12.82;;;7.50;;
65234;SDS011;51820;48.374;10.930;2023-04-09T11:28:02;14.88;;;7.32;;
65234;SDS011;51820;48.374;10.930;2023-04-09T11:30:31;13.63;;;7.70;;
65234;SDS011;51820;48.374;10.930;2023-04-09T11:33:05;12.43;;;7.07;;
65234;SDS011;51820;48.374;10.930;2023-04-09T11:35:39;12.23;;;6.97;;
65234;SDS011;51820;48.374;10.930;2023-04-09T11:38:07;14.02;;;7.78;;
65234;SDS011;51820;48.374;10.930;2023-04-09T11:40:36;14.20;;;7.53;;
65234;SDS011;51820;48.374;10.930;2023-04-09T11:43:15;12.63;;;6.87;;
65234;SDS011;51820;48.374;10.930;2023-04-09T11:45:46;11.88;;;7.00;;
65234;SDS011;51820;48.374;10.930;2023-04-09T11:48:16;13.13;;;7.15;;
65234;SDS011;51820;48.374;10.930;2023-04-09T11:50:47;11.52;;;6.75;;
65234;SDS011;51820;48.374;10.930;2023-04-09T11:53:20;12.55;;;7.45;;
65234;SDS011;51820;48.374;10.930;2023-04-09T11:55:49;12.90;;;6.87;;
65234;SDS011;51820;48.374;10.930;2023-04-09T11:58:20;12.52;;;6.57;;
65234;SDS011;51820;48.374;10.930;2023-04-09T12:00:51;11.35;;;5.75;;
65234;SDS011;51820;48.374;10.930;2023-04-09T12:03:27;12.93;;;7.38;;
65234;SDS011;51820;48.374;10.930;2023-04-09T12:05:59;11.43;;;6.25;;
65234;SDS011;51820;48.374;10.930;2023-04-09T12:08:29;10.90;;;6.13;;
65234;SDS011;51820;48.374;10.930;2023-04-09T12:11:06;11.20;;;6.07;;
65234;SDS011;51820;48.374;10.930;2023-04-09T12:13:36;10.75;;;6.00;;
65234;SDS011;51820;48.374;10.930;2023-04-09T12:16:08;10.35;;;6.07;;
65234;SDS011;51820;48.374;10.930;2023-04-09T12:18:46;11.50;;;6.43;;
65234;SDS011;51820;48.374;10.930;2023-04-09T12:21:32;10.80;;;5.97;;
65234;SDS011;51820;48.374;10.930;2023-04-09T12:24:14;11.90;;;6.80;;
65234;SDS011;51820;48.374;10.930;2023-04-09T12:26:43;12.93;;;7.40;;
65234;SDS011;51820;48.374;10.930;2023-04-09T12:29:13;10.32;;;5.82;;
65234;SDS011;51820;48.374;10.930;2023-04-09T12:31:44;11.63;;;6.45;;
65234;SDS011;51820;48.374;10.930;2023-04-09T12:34:16;10.47;;;6.37;;
65234;SDS011;51820;48.374;10.930;2023-04-09T12:36:46;12.93;;;7.10;;
65234;SDS011;51820;48.374;10.930;2023-04-09T12:39:15;11.40;;;6.70;;
65234;SDS011;51820;48.374;10.930;2023-04-09T12:41:45;12.43;;;7.22;;
65234;SDS011;51820;48.374;10.930;2023-04-09T12:44:13;12.63;;;6.90;;
65234;SDS011;51820;48.374;10.930;2023-04-09T12:46:44;11.60;;;6.23;;
65234;SDS011;51820;48.374;10.930;2023-04-09T12:49:13;10.45;;;6.00;;
65234;SDS011;51820;48.374;10.930;2023-04-09T12:51:44;10.10;;;5.80;;
65234;SDS011;51820;48.374;10.930;2023-04-09T12:54:14;10.93;;;6.10;;
65234;SDS011;51820;48.374;10.930;2023-04-09T12:56:45;10.98;;;6.25;;
65234;SDS011;51820;48.374;10.930;2023-04-09T12:59:15;9.97;;;5.83;;
65234;SDS011;51820;48.374;10.930;2023-04-09T13:01:44;10.40;;;5.97;;
65234;SDS011;51820;48.374;10.930;2023-04-09T13:04:12;11.32;;;5.88;;
65234;SDS011;51820;48.374;10.930;2023-04-09T13:06:43;10.90;;;5.60;;
65234;SDS011;51820;48.374;10.930;2023-04-09T13:09:12;10.35;;;5.88;;
65234;SDS011;51820;48.374;10.930;2023-04-09T13:11:40;10.93;;;5.80;;
65234;SDS011;51820;48.374;10.930;2023-04-09T13:14:09;11.27;;;6.13;;
65234;SDS011;51820;48.374;10.930;2023-04-09T13:16:39;10.27;;;6.10;;
65234;SDS011;51820;48.374;10.930;2023-04-09T13:19:08;11.70;;;6.25;;
65234;SDS011;51820;48.374;10.930;2023-04-09T13:21:37;12.10;;;5.72;;
65234;SDS011;51820;48.374;10.930;2023-04-09T13:24:09;12.17;;;6.17;;
65234;SDS011;51820;48.374;10.930;2023-04-09T13:26:43;13.05;;;5.97;;
65234;SDS011;51820;48.374;10.930;2023-04-09T13:29:12;12.25;;;6.78;;
65234;SDS011;51820;48.374;10.930;2023-04-09T13:31:57;13.63;;;7.10;;
65234;SDS011;51820;48.374;10.930;2023-04-09T13:34:27;9.88;;;5.53;;
65234;SDS011;51820;48.374;10.930;2023-04-09T13:36:56;10.67;;;5.87;;
65234;SDS011;51820;48.374;10.930;2023-04-09T13:39:26;10.80;;;5.75;;
65234;SDS011;51820;48.374;10.930;2023-04-09T13:41:56;9.85;;;5.47;;
65234;SDS011;51820;48.374;10.930;2023-04-09T13:44:38;11.00;;;5.65;;
65234;SDS011;51820;48.374;10.930;2023-04-09T13:47:08;10.70;;;5.57;;
65234;SDS011;51820;48.374;10.930;2023-04-09T13:49:38;10.27;;;5.40;;
65234;SDS011;51820;48.374;10.930;2023-04-09T13:52:07;10.10;;;5.60;;
65234;SDS011;51820;48.374;10.930;2023-04-09T13:54:37;10.32;;;5.75;;
65234;SDS011;51820;48.374;10.930;2023-04-09T13:57:05;10.55;;;5.15;;
65234;SDS011;51820;48.374;10.930;2023-04-09T13:59:34;10.40;;;5.47;;
65234;SDS011;51820;48.374;10.930;2023-04-09T14:02:03;9.97;;;5.43;;
65234;SDS011;51820;48.374;10.930;2023-04-09T14:04:35;12.85;;;5.43;;
65234;SDS011;51820;48.374;10.930;2023-04-09T14:07:05;9.95;;;5.43;;
65234;SDS011;51820;48.374;10.930;2023-04-09T14:09:34;9.98;;;5.30;;
65234;SDS011;51820;48.374;10.930;2023-04-09T14:12:04;10.35;;;5.70;;
65234;SDS011;51820;48.374;10.930;2023-04-09T14:14:32;11.10;;;5.60;;
65234;SDS011;51820;48.374;10.930;2023-04-09T14:17:01;10.93;;;5.40;;
65234;SDS011;51820;48.374;10.930;2023-04-09T14:19:29;14.02;;;6.60;;
65234;SDS011;51820;48.374;10.930;2023-04-09T14:22:03;11.90;;;6.30;;
65234;SDS011;51820;48.374;10.930;2023-04-09T14:24:41;12.77;;;6.75;;
65234;SDS011;51820;48.374;10.930;2023-04-09T14:27:11;13.53;;;6.83;;
65234;SDS011;51820;48.374;10.930;2023-04-09T14:29:39;11.65;;;6.32;;
65234;SDS011;51820;48.374;10.930;2023-04-09T14:32:13;13.88;;;7.40;;
65234;SDS011;51820;48.374;10.930;2023-04-09T14:34:44;12.57;;;6.43;;
65234;SDS011;51820;48.374;10.930;2023-04-09T14:37:12;9.55;;;5.60;;
65234;SDS011;51820;48.374;10.930;2023-04-09T14:39:40;13.40;;;6.17;;
65234;SDS011;51820;48.374;10.930;2023-04-09T14:42:10;10.88;;;6.15;;